METAR Analyzer

一覧表示

Hello, Guest. (Login)

KJFK/JFK  -  ジョン・F・ケネディ

観測日時
2021-11-28 20:51 (UTC) (31分前)
気温
5.6
露点
0
湿数
5.6
相対湿度
67.2%
QNH
1010.2hPa
推定現地気圧
1009.7hPa
推定海面気圧
1010.2hPa
体感温度
-0.2
(無風時)
9.3
HI
4
気温前日比
+2.3
体感温度前日比
+8.9
HI前日比
+3.2
水平視程
>10SM
鉛直視程
データなし
雲底高度
7000ft AGL
V/I
VMC (VFR)
RVR
No RVR data
卓越風
3kt from 30°
ガスト
No gust
降水
報告なし
その他の天気
報告なし
散在する雲 @ 4700ft AGL / 隙間のある雲 @ 7000ft AGL

KJFK 282051Z 03003KT 10SM SCT047 BKN070 06/00 A2983 RMK AO2 SLP100 T00560000 55006

KLGA/LGA  -  ラガーディア

観測日時
2021-11-28 20:51 (UTC) (31分前)
気温
5
露点
-0.6
湿数
5.6
相対湿度
67%
QNH
1009.5hPa
推定現地気圧
1008.8hPa
推定海面気圧
1009.5hPa
体感温度
-2.2
(無風時)
8.8
HI
3.3
気温前日比
+0.6
体感温度前日比
+6.2
HI前日比
+1.4
水平視程
>10SM
鉛直視程
データなし
雲底高度
6500ft AGL
V/I
VMC (VFR)
RVR
No RVR data
卓越風
4kt from 40°
ガスト
No gust
降水
報告なし
その他の天気
報告なし
少しの雲 @ 3000ft AGL / 少しの雲 @ 4500ft AGL / 隙間のある雲 @ 6500ft AGL

KLGA 282051Z 04004KT 10SM FEW030 FEW045 BKN065 05/M01 A2981 RMK AO2 SLP095 T00501006 55008

KEWR/EWR  -  ニューアーク・リバティー

観測日時
2021-11-28 20:51 (UTC) (31分前)
気温
5.6
露点
-0.6
湿数
6.2
相対湿度
64.3%
QNH
1009.8hPa
推定現地気圧
1009.2hPa
推定海面気圧
1009.8hPa
体感温度
9.3
(無風時)
9.3
HI
3.9
気温前日比
+1.2
体感温度前日比
+17.3
HI前日比
+2
水平視程
>10SM
鉛直視程
データなし
雲底高度
6500ft AGL
V/I
VMC (VFR)
RVR
No RVR data
卓越風
静穏
ガスト
No gust
降水
報告なし
その他の天気
報告なし
少しの雲 @ 4500ft AGL / 隙間のある雲 @ 6500ft AGL / 隙間のある雲 @ 15000ft AGL

KEWR 282051Z 00000KT 10SM FEW045 BKN065 BKN150 06/M01 A2982 RMK AO2 SLP099 T00561006 55004

KIAD/IAD  -  ワシントン・ダレス

観測日時
2021-11-28 20:52 (UTC) (30分前)
気温
13.3
露点
-0.6
湿数
13.9
相対湿度
38.3%
QNH
1008.5hPa
推定現地気圧
997.2hPa
推定海面気圧
1008.5hPa
体感温度
8.2
(無風時)
14.8
HI
11.7
気温前日比
+7.2
体感温度前日比
+9
HI前日比
+7.9
水平視程
>10SM
鉛直視程
データなし
雲底高度
No dense clouds
V/I
VMC (VFR)
RVR
No RVR data
卓越風
3kt from 200°
ガスト
No gust
降水
報告なし
その他の天気
報告なし
散在する雲 @ 6500ft AGL / 散在する雲 @ 25000ft AGL

KIAD 282052Z 20003KT 10SM SCT065 SCT250 13/M01 A2978 RMK AO2 SLP083 T01331006 55006 $

KDTW/DTW  -  デトロイト・メトロポリタン・ウェイン・カウンティ